Terminal Aerodrome Forecast
Issued by NWS Sterling, VA

Current Version | Previous Version | Graphics & Text | Print | Product List | Glossary On
Versions: 1 2 3 4 5 6 7 8 9 10 11 12 13 14 15 16 17 18 19 20
000
FTUS41 KLWX 220533
TAFMRB
TAF
KMRB 220533Z 2206/2306 35005KT 6SM -SHRA BR BKN080
     FM221400 35005KT P6SM VCSH OVC020
     FM221800 35005KT 6SM -SHRA BR OVC025
     FM230000 VRB03KT 6SM -SHRA BR OVC080=

USA.gov is the U.S. government's official web portal to all federal, state and local government web resources and services.